Berkeley, CA

7:33 AM PDT on July 07, 2015 (GMT -0700)
ForestAve | | Change Station
CLOSE
Current Station
Personal Weather Station
Location: Berkeley, CA
Elevation: 318 ft
Nearby Weather Stations

Elev 318 ft 37.86 °N, 122.25 °W | Updated 16 seconds ago

Mostly Cloudy
Mostly Cloudy
63.9 °F
Feels Like 63.9 °F
N
0.0
Wind Variable Wind from NNW
Gusts 0.0 mph

Today
High -- | Low -- °F
--% Chance of Precip.
Yesterday
High -- | Low -- °F
Precip. -- in
5:53 AM 8:34 PM
Waning Gibbous, 64% visible
Pressure 30.03 in
Visibility 10.0 miles
Clouds Overcast 1400 ft
Dew Point 60 °F
Humidity 86%
Rainfall 0.00 in
Snow Depth Not available.
UV 1.0 out of 12
Pollen 3.20 out of 12
Air Quality Not available.
Flu Activity Not available.
METAR KOAK 071353Z 26011KT 10SM OVC014 17/14 A3003 RMK AO2 SLP169 T01720139

More Conditions Fewer Conditions

Pressure 30.03 in
Visibility 10.0 miles
Clouds Overcast 1400 ft
Dew Point 60 °F
Humidity 86%
Rainfall 0.00 in
Snow Depth Not available.
UV 1.0 out of 12
Pollen 3.20 out of 12
Air Quality Not available.
Flu Activity Not available.
METAR KOAK 071353Z 26011KT 10SM OVC014 17/14 A3003 RMK AO2 SLP169 T01720139

More Conditions Fewer Conditions

10-Day Weather Forecast

×

Almanac

Astronomy

Jul. 07, 2015 Rise Set
Actual Time
Civil Twilight
Nautical Twilight
Astronomical Twilight
Moon
Length of Visible Light
Length of Day
Tomorrow will be .
, % of the Moon is Illuminated

Today's Extremes

State Highs State Lows

Community

WunderPhotos

Upload Photos

1,835,810 photos uploaded!

WunderBlogs® & News

Nearby

Air Quality

  Air Quality AQ Index Pollutant
Not available.

Snow Depth

Station Depth Elevation

Earthquake Activity

City Distance Mag. Time & Date
Minimum magnitude displayed is 2.5.

Coastal Water Temperatures

Place Temperature

Stations

Nearby Weather Stations

Station Location Temp. Windchill Dew Point Humidity Wind Precip. Elev Updated Type